Time;durP1;ratioP1;P1;durP2;ratioP2;P2;SDS_P1;SDS_P2;PMS_P1;PMS_P2;Temp;Humidity;BMP_temperature;BMP_pressure;BME280_temperature;BME280_humidity;BME280_pressure;Samples;Min_cycle;Max_cycle;Signal;HPM_P1;HPM_P2
2022/07/01 00:00:12;;;;;;;9.35;7.25;;;;;;;18.29;86.01;99379.95;1757611;81;21048;-61
2022/07/01 00:02:41;;;;;;;8.70;6.70;;;;;;;18.33;85.97;99376.55;1757346;80;21509;-61
2022/07/01 00:05:09;;;;;;;7.30;6.05;;;;;;;18.38;85.75;99373.05;1759040;79;20989;-61
2022/07/01 00:07:35;;;;;;;8.65;6.22;;;;;;;18.36;85.87;99369.69;1757956;79;21283;-61
2022/07/01 00:10:04;;;;;;;8.60;5.90;;;;;;;18.32;85.89;99370.44;1755788;81;21096;-61
2022/07/01 00:12:30;;;;;;;9.60;6.85;;;;;;;18.24;85.87;99368.09;1757161;81;21080;-61
2022/07/01 00:14:57;;;;;;;8.03;6.75;;;;;;;18.20;86.10;99371.95;1754717;81;20988;-61
2022/07/01 00:17:24;;;;;;;7.35;6.65;;;;;;;18.18;86.32;99369.94;1776579;79;20941;-61
2022/07/01 00:19:50;;;;;;;10.32;6.10;;;;;;;18.15;86.18;99374.14;1751288;80;20962;-61
2022/07/01 00:22:17;;;;;;;8.05;7.25;;;;;;;18.11;86.38;99374.89;1745187;81;21087;-61
2022/07/01 00:24:46;;;;;;;9.68;7.05;;;;;;;18.08;86.48;99382.58;1745194;80;21477;-61
2022/07/01 00:27:15;;;;;;;9.23;7.80;;;;;;;18.05;86.54;99382.84;1776520;80;20993;-61
2022/07/01 00:29:42;;;;;;;7.42;6.72;;;;;;;18.03;86.57;99383.45;1750890;80;21075;-61
2022/07/01 00:32:09;;;;;;;8.68;6.97;;;;;;;17.99;86.66;99388.64;1780139;78;21045;-61
2022/07/01 00:34:35;;;;;;;7.87;7.08;;;;;;;17.97;86.81;99385.28;1746498;80;21435;-61
2022/07/01 00:37:03;;;;;;;8.28;6.60;;;;;;;17.94;86.84;99397.43;1743719;81;21514;-61
2022/07/01 00:39:35;;;;;;;8.48;6.83;;;;;;;17.85;86.78;99397.71;1747424;80;21043;-61
2022/07/01 00:42:01;;;;;;;8.03;7.05;;;;;;;17.79;87.05;99394.75;1742501;81;21613;-61
2022/07/01 00:44:29;;;;;;;9.93;6.72;;;;;;;17.74;87.18;99394.25;1742566;81;21675;-61
2022/07/01 00:47:02;;;;;;;7.70;6.58;;;;;;;17.73;87.42;99398.70;1746090;79;21084;-62
2022/07/01 00:49:30;;;;;;;7.80;7.03;;;;;;;17.73;87.58;99411.04;1748987;81;21583;-62
2022/07/01 00:51:57;;;;;;;8.55;6.55;;;;;;;17.73;87.97;99418.50;1750860;81;21117;-61
2022/07/01 00:54:26;;;;;;;7.83;6.40;;;;;;;17.73;88.01;99411.04;1754415;79;21131;-62
2022/07/01 00:56:53;;;;;;;10.50;7.08;;;;;;;17.73;88.29;99416.31;1748640;80;21036;-62
2022/07/01 00:59:20;;;;;;;7.28;6.58;;;;;;;17.73;88.34;99411.91;1753655;81;22266;-61
2022/07/01 01:01:47;;;;;;;7.25;6.58;;;;;;;17.77;88.16;99412.48;1751235;81;21625;-62
2022/07/01 01:04:14;;;;;;;9.78;6.80;;;;;;;17.75;88.13;99419.68;1780893;78;21501;-61
2022/07/01 01:06:41;;;;;;;8.25;7.33;;;;;;;17.76;88.30;99414.29;1775874;78;21062;-62
2022/07/01 01:09:08;;;;;;;8.03;7.15;;;;;;;17.81;88.31;99413.92;1745768;80;21005;-61
2022/07/01 01:11:35;;;;;;;10.28;7.03;;;;;;;17.80;88.58;99414.90;1752743;79;21932;-62
2022/07/01 01:14:02;;;;;;;7.70;6.87;;;;;;;17.79;88.65;99419.84;1753044;79;21082;-61
2022/07/01 01:16:28;;;;;;;8.33;7.53;;;;;;;17.78;88.77;99428.67;1749590;81;21724;-62
2022/07/01 01:18:56;;;;;;;10.08;7.10;;;;;;;17.77;88.95;99426.52;1754063;81;21140;-61
2022/07/01 01:21:23;;;;;;;12.45;7.92;;;;;;;17.79;89.02;99419.34;1751551;81;21027;-61
2022/07/01 01:23:49;;;;;;;11.97;7.47;;;;;;;17.78;89.00;99408.86;1750969;81;21911;-61
2022/07/01 01:26:21;;;;;;;10.98;7.67;;;;;;;17.85;88.92;99412.73;1751909;81;21545;-62
2022/07/01 01:28:49;;;;;;;9.10;7.62;;;;;;;17.90;88.85;99405.27;1751470;80;21031;-61
2022/07/01 01:31:17;;;;;;;10.25;7.72;;;;;;;17.88;89.14;99412.47;1755384;79;21066;-61
2022/07/01 01:33:45;;;;;;;8.68;7.87;;;;;;;17.92;89.31;99404.63;1751004;79;21024;-61
2022/07/01 01:36:12;;;;;;;8.40;7.55;;;;;;;17.95;89.37;99403.05;1751142;81;21514;-62
2022/07/01 01:38:39;;;;;;;9.38;7.95;;;;;;;17.93;89.37;99405.01;1757198;79;21140;-62
2022/07/01 01:41:09;;;;;;;13.08;7.85;;;;;;;17.93;89.47;99403.69;1752387;81;24969;-62
2022/07/01 01:43:35;;;;;;;9.50;8.08;;;;;;;17.94;89.62;99406.67;1753166;79;21578;-61
2022/07/01 01:46:03;;;;;;;10.90;8.58;;;;;;;17.94;89.70;99407.99;1753168;81;20969;-62
2022/07/01 01:48:31;;;;;;;13.18;7.92;;;;;;;17.95;89.81;99407.02;1750090;81;21806;-62
2022/07/01 01:50:58;;;;;;;10.20;8.33;;;;;;;17.95;89.89;99410.98;1747365;81;21107;-62
2022/07/01 01:53:25;;;;;;;9.88;8.13;;;;;;;17.95;89.91;99410.14;1745989;80;21069;-61
2022/07/01 01:55:53;;;;;;;9.15;8.20;;;;;;;17.94;89.96;99419.88;1737250;81;21060;-62
2022/07/01 01:58:19;;;;;;;11.65;7.80;;;;;;;17.92;90.00;99429.72;1750871;80;21086;-61
2022/07/01 02:00:46;;;;;;;9.78;7.83;;;;;;;17.85;89.87;99433.85;1764168;79;21141;-62
2022/07/01 02:03:13;;;;;;;14.63;8.70;;;;;;;17.78;90.22;99454.63;1765080;79;20998;-62
2022/07/01 02:05:40;;;;;;;9.33;8.18;;;;;;;17.78;90.27;99459.03;1763355;80;21014;-61
2022/07/01 02:08:06;;;;;;;9.95;8.70;;;;;;;17.76;90.71;99474.19;1758650;80;21034;-62
2022/07/01 02:10:33;;;;;;;10.05;8.78;;;;;;;17.83;91.12;99466.14;1761175;79;20981;-62
2022/07/01 02:12:59;;;;;;;10.53;8.25;;;;;;;17.90;91.25;99479.22;1757941;79;21912;-62
2022/07/01 02:15:26;;;;;;;10.32;7.87;;;;;;;17.97;91.25;99475.09;1762799;79;21010;-61
2022/07/01 02:17:56;;;;;;;12.07;8.90;;;;;;;18.00;91.38;99474.84;1761319;79;21070;-61
2022/07/01 02:20:21;;;;;;;10.68;9.00;;;;;;;18.04;91.55;99472.32;1762063;80;21042;-62
2022/07/01 02:22:49;;;;;;;11.12;7.50;;;;;;;18.08;91.52;99472.41;1742762;80;21578;-62
2022/07/01 02:25:15;;;;;;;;;;;;;;;18.14;91.55;99484.77;1766422;79;21326;-63
2022/07/01 02:27:42;;;;;;;8.60;7.75;;;;;;;18.16;91.74;99476.23;1768623;78;20165;-62
2022/07/01 02:30:10;;;;;;;11.57;8.55;;;;;;;18.21;91.67;99471.41;1762716;79;21041;-63
2022/07/01 02:32:37;;;;;;;12.55;8.30;;;;;;;18.26;91.61;99475.35;1737282;81;21012;-62
2022/07/01 02:35:05;;;;;;;11.22;8.40;;;;;;;18.31;91.61;99473.14;1770082;79;20952;-62
2022/07/01 02:37:33;;;;;;;9.80;8.38;;;;;;;18.37;91.71;99478.39;1780147;79;22402;-61
2022/07/01 02:40:00;;;;;;;9.75;8.38;;;;;;;18.45;91.67;99469.83;1783524;79;21015;-62
2022/07/01 02:42:27;;;;;;;13.75;9.03;;;;;;;18.48;91.76;99474.37;1758322;79;21582;-62
2022/07/01 02:44:55;;;;;;;9.98;8.78;;;;;;;18.52;91.84;99473.16;1756411;80;20955;-62
2022/07/01 02:47:22;;;;;;;12.95;9.25;;;;;;;18.59;91.99;99472.64;1739346;80;21958;-61
2022/07/01 02:49:51;;;;;;;10.35;8.23;;;;;;;18.65;92.08;99469.47;1739040;81;22267;-61
2022/07/01 02:52:18;;;;;;;10.53;8.28;;;;;;;18.71;91.93;99471.62;1761123;80;21105;-61
2022/07/01 02:54:45;;;;;;;9.88;7.83;;;;;;;18.76;92.07;99465.45;1758056;80;21575;-62
2022/07/01 02:57:11;;;;;;;10.78;8.23;;;;;;;18.83;92.14;99462.66;1762493;79;21562;-62
2022/07/01 02:59:38;;;;;;;10.70;7.85;;;;;;;18.91;92.20;99459.36;1763835;79;21025;-62
2022/07/01 03:02:05;;;;;;;12.63;8.10;;;;;;;18.98;92.06;99453.38;1763005;80;21749;-62
2022/07/01 03:04:32;;;;;;;11.97;8.13;;;;;;;18.97;91.71;99454.37;1759440;79;21056;-62
2022/07/01 03:06:59;;;;;;;13.38;7.35;;;;;;;19.01;91.93;99450.47;1758291;80;21124;-62
2022/07/01 03:09:26;;;;;;;14.05;7.90;;;;;;;19.11;91.98;99445.72;1757148;80;21044;-62
2022/07/01 03:11:53;;;;;;;10.60;7.80;;;;;;;19.18;91.98;99440.23;1754537;80;21165;-62
2022/07/01 03:14:20;;;;;;;9.73;7.55;;;;;;;19.29;92.04;99445.42;1761241;80;21808;-62
2022/07/01 03:16:49;;;;;;;10.63;7.70;;;;;;;19.38;91.85;99445.95;1755922;80;20995;-63
2022/07/01 03:19:17;;;;;;;12.55;8.40;;;;;;;19.48;91.70;99452.58;1759227;79;21003;-62
2022/07/01 03:21:44;;;;;;;16.50;8.40;;;;;;;19.56;91.47;99449.27;1754948;80;21030;-62
2022/07/01 03:24:10;;;;;;;18.23;8.63;;;;;;;19.59;91.34;99451.63;1751016;81;21512;-62
2022/07/01 03:26:37;;;;;;;11.65;7.95;;;;;;;19.67;91.52;99450.00;1758368;80;22007;-62
2022/07/01 03:29:04;;;;;;;12.07;7.87;;;;;;;19.83;91.48;99441.53;1764053;79;21018;-62
2022/07/01 03:31:31;;;;;;;11.20;7.37;;;;;;;19.92;91.46;99437.70;1766141;80;20950;-62
2022/07/01 03:33:58;;;;;;;8.60;7.25;;;;;;;20.09;91.69;99440.97;1763345;79;21069;-63
2022/07/01 03:36:24;;;;;;;12.23;8.28;;;;;;;20.39;91.52;99436.45;1754933;80;21040;-62
2022/07/01 03:38:51;;;;;;;13.72;7.17;;;;;;;20.69;91.22;99430.97;1761945;80;21698;-62
2022/07/01 03:41:18;;;;;;;9.13;7.00;;;;;;;20.99;90.86;99433.88;1760366;79;21563;-62
2022/07/01 03:43:45;;;;;;;12.00;6.97;;;;;;;21.21;90.24;99433.98;1761586;80;21048;-62
2022/07/01 03:46:12;;;;;;;13.25;7.05;;;;;;;21.39;90.31;99430.56;1761290;80;21563;-62
2022/07/01 03:48:39;;;;;;;11.90;7.40;;;;;;;21.58;90.01;99431.77;1756018;80;20988;-63
2022/07/01 03:51:06;;;;;;;;;;;;;;;21.88;89.94;99426.59;1759505;79;21133;-63
2022/07/01 03:56:18;;;;;;;12.13;6.83;;;;;;;22.17;88.51;99424.67;1751207;80;21125;-62
2022/07/01 03:58:44;;;;;;;9.73;6.87;;;;;;;22.12;88.60;99411.83;1752160;81;21187;-62
2022/07/01 04:01:11;;;;;;;9.25;7.10;;;;;;;22.20;88.43;99415.08;1749918;81;21100;-62
2022/07/01 04:03:38;;;;;;;15.98;8.00;;;;;;;22.28;88.30;99411.16;1757887;79;21681;-62
2022/07/01 04:06:05;;;;;;;11.55;7.22;;;;;;;22.63;89.50;99405.39;1749847;81;22328;-63
2022/07/01 04:08:32;;;;;;;13.80;7.37;;;;;;;23.55;89.90;99405.11;1748810;81;21185;-63
2022/07/01 04:10:59;;;;;;;23.30;7.97;;;;;;;24.60;89.62;99403.50;1751152;81;21940;-63
2022/07/01 04:13:27;;;;;;;16.73;7.50;;;;;;;25.59;89.29;99400.74;1748029;81;21070;-62
2022/07/01 04:15:54;;;;;;;10.70;6.85;;;;;;;26.65;88.54;99391.54;1746802;81;21450;-64
2022/07/01 04:18:21;;;;;;;12.15;6.40;;;;;;;27.39;86.35;99392.31;1753069;79;21082;-64
2022/07/01 04:22:32;;;;;;;14.07;6.95;;;;;;;27.71;84.74;99399.55;1746495;79;21671;-63
2022/07/01 04:23:16;;;;;;;9.38;6.03;;;;;;;27.98;83.58;99398.47;1746873;81;21007;-64
2022/07/01 04:25:43;;;;;;;11.93;6.47;;;;;;;28.28;83.04;99404.52;1749902;79;21001;-64
2022/07/01 04:28:10;;;;;;;9.73;6.30;;;;;;;28.65;82.69;99400.69;1754426;79;22012;-64
2022/07/01 04:30:37;;;;;;;10.40;5.50;;;;;;;28.97;81.68;99398.37;1751423;81;20945;-64
2022/07/01 04:33:04;;;;;;;9.15;5.65;;;;;;;29.30;81.10;99401.75;1752438;81;21096;-64
2022/07/01 04:35:30;;;;;;;11.97;5.87;;;;;;;29.48;79.63;99395.27;1750306;81;20969;-64
2022/07/01 04:37:57;;;;;;;13.05;5.60;;;;;;;29.65;79.00;99410.02;1751352;79;21577;-63
2022/07/01 04:40:24;;;;;;;11.35;5.67;;;;;;;29.91;78.17;99401.67;1752268;79;22230;-63
2022/07/01 04:44:37;;;;;;;7.62;5.40;;;;;;;30.15;76.65;99399.42;1859046;75;24044;-63
2022/07/01 04:47:05;;;;;;;11.55;5.70;;;;;;;30.14;76.35;99399.95;1817491;77;21122;-63
2022/07/01 04:49:32;;;;;;;12.28;5.47;;;;;;;30.34;76.05;99394.58;1818674;77;21422;-63
2022/07/01 04:52:00;;;;;;;7.33;5.08;;;;;;;30.41;74.46;99402.12;1819216;77;22251;-64
2022/07/01 04:54:27;;;;;;;9.18;5.78;;;;;;;30.55;73.98;99397.02;1825341;77;21601;-64
2022/07/01 04:56:54;;;;;;;6.92;4.55;;;;;;;30.66;73.63;99395.55;1779772;78;20983;-65
2022/07/01 04:59:21;;;;;;;10.38;5.12;;;;;;;31.11;73.25;99392.12;1777304;80;20914;-65
2022/07/01 05:02:36;;;;;;;11.57;5.72;;;;;;;31.48;72.62;99393.23;1746920;79;22704;-62
2022/07/01 05:05:03;;;;;;;14.47;4.65;;;;;;;31.99;71.94;99396.86;1775885;80;21799;-65
2022/07/01 05:07:30;;;;;;;16.23;4.75;;;;;;;32.53;70.85;99396.70;1778406;80;20965;-64
2022/07/01 05:09:59;;;;;;;9.75;4.53;;;;;;;33.04;70.26;99396.06;1777423;80;21005;-65
2022/07/01 05:12:25;;;;;;;8.18;4.30;;;;;;;33.36;69.17;99396.70;1774565;80;21632;-64
2022/07/01 05:14:52;;;;;;;9.85;4.42;;;;;;;33.65;68.27;99395.88;1775550;79;21146;-65
2022/07/01 05:17:19;;;;;;;13.45;4.95;;;;;;;33.78;67.33;99395.39;1775016;80;21056;-65
2022/07/01 05:22:30;;;;;;;12.45;4.33;;;;;;;34.34;66.05;99402.71;1775039;80;21681;-62
2022/07/01 05:24:57;;;;;;;9.60;4.22;;;;;;;34.49;64.86;99397.13;1772260;80;21628;-62
2022/07/01 05:27:24;;;;;;;7.75;4.10;;;;;;;34.73;64.17;99398.47;1776508;79;20986;-62
2022/07/01 05:29:52;;;;;;;8.85;4.35;;;;;;;34.74;63.04;99402.84;1776495;80;21033;-62
2022/07/01 05:32:19;;;;;;;7.75;4.10;;;;;;;34.80;62.32;99401.89;1774803;80;21069;-62
2022/07/01 05:34:45;;;;;;;8.93;4.45;;;;;;;34.88;61.36;99396.64;1771876;80;21009;-62
2022/07/01 05:37:12;;;;;;;11.05;4.00;;;;;;;34.91;61.07;99392.91;1773816;80;21056;-62
2022/07/01 05:39:39;;;;;;;9.90;4.17;;;;;;;35.02;60.21;99397.19;1778019;80;21102;-62
2022/07/01 05:42:06;;;;;;;8.50;4.62;;;;;;;35.12;59.62;99396.05;1771896;80;21511;-62
2022/07/01 05:44:33;;;;;;;8.75;4.60;;;;;;;35.17;59.18;99393.45;1771704;80;20954;-62
2022/07/01 05:46:59;;;;;;;12.03;4.78;;;;;;;35.29;58.22;99405.09;1774505;80;21627;-62
2022/07/01 05:49:26;;;;;;;8.85;4.58;;;;;;;35.24;57.72;99405.00;1770896;80;20938;-62
2022/07/01 05:51:53;;;;;;;9.65;4.62;;;;;;;35.20;56.92;99409.23;1774052;80;20997;-62
2022/07/01 05:54:20;;;;;;;8.98;5.03;;;;;;;35.23;56.46;99407.94;1775350;80;21068;-61
2022/07/01 05:56:47;;;;;;;7.58;4.00;;;;;;;35.23;56.00;99411.47;1770813;80;21219;-62
2022/07/01 05:59:14;;;;;;;14.28;4.58;;;;;;;35.41;55.38;99410.48;1774213;79;21005;-62
2022/07/01 06:01:41;;;;;;;8.60;4.62;;;;;;;35.26;54.76;99410.98;1770525;79;21092;-62
2022/07/01 06:04:07;;;;;;;10.48;4.22;;;;;;;35.14;54.12;99413.74;1769206;79;21051;-61
2022/07/01 06:06:34;;;;;;;8.05;3.92;;;;;;;34.91;53.34;99413.25;1772517;79;21029;-62
2022/07/01 06:09:01;;;;;;;6.78;4.37;;;;;;;34.74;52.75;99412.34;1773972;79;21044;-62
2022/07/01 06:11:27;;;;;;;9.30;4.95;;;;;;;34.73;52.51;99420.16;1776638;80;21009;-62
2022/07/01 06:13:54;;;;;;;6.85;4.15;;;;;;;34.68;52.31;99419.54;1772144;80;21032;-62
2022/07/01 06:16:21;;;;;;;13.28;4.85;;;;;;;34.54;51.17;99422.99;1775861;79;21012;-61
2022/07/01 06:18:48;;;;;;;7.33;4.55;;;;;;;34.37;51.04;99422.06;1776951;79;21037;-62
2022/07/01 06:21:15;;;;;;;9.33;4.28;;;;;;;34.55;51.55;99421.10;1775571;80;21078;-62
2022/07/01 06:23:42;;;;;;;9.95;4.45;;;;;;;34.54;49.80;99417.57;1767360;80;20969;-65
2022/07/01 06:26:09;;;;;;;7.55;4.22;;;;;;;34.11;49.41;99426.55;1773869;79;21055;-65
2022/07/01 06:28:36;;;;;;;8.50;4.60;;;;;;;33.94;49.19;99420.42;1772103;80;21106;-64
2022/07/01 06:31:03;;;;;;;7.95;4.25;;;;;;;33.75;49.11;99421.55;1770042;80;21045;-64
2022/07/01 06:33:32;;;;;;;10.88;4.55;;;;;;;33.93;49.33;99420.67;1773937;79;21020;-64
2022/07/01 06:36:00;;;;;;;8.30;4.65;;;;;;;33.85;48.71;99412.34;1769329;79;21005;-63
2022/07/01 06:38:26;;;;;;;8.63;4.22;;;;;;;33.97;48.86;99403.70;1772082;79;21085;-63
2022/07/01 06:43:38;;;;;;;9.90;5.28;;;;;;;34.32;49.23;99409.73;1781609;79;21621;-63
2022/07/01 06:46:06;;;;;;;7.37;5.03;;;;;;;35.02;49.15;99410.76;1793138;79;21047;-63
2022/07/01 06:48:32;;;;;;;9.18;4.70;;;;;;;35.23;48.37;99411.47;1792279;78;21090;-63
2022/07/01 06:50:59;;;;;;;10.03;4.95;;;;;;;35.35;48.33;99409.55;1791090;78;20996;-63
2022/07/01 06:53:26;;;;;;;10.70;5.22;;;;;;;35.44;48.06;99401.02;1772839;80;21129;-63
2022/07/01 06:55:52;;;;;;;8.03;4.78;;;;;;;35.74;48.03;99407.04;1773062;80;21028;-64
2022/07/01 06:58:19;;;;;;;6.55;4.05;;;;;;;36.14;47.63;99406.09;1777490;80;21077;-64
2022/07/01 07:00:46;;;;;;;9.25;4.90;;;;;;;35.93;46.15;99402.17;1775965;80;21057;-64
2022/07/01 07:03:13;;;;;;;9.48;4.30;;;;;;;35.36;46.07;99404.41;1772208;80;21491;-64
2022/07/01 07:05:40;;;;;;;11.68;4.75;;;;;;;34.71;45.45;99414.17;1775764;80;21122;-63
2022/07/01 07:08:07;;;;;;;6.90;4.40;;;;;;;34.28;45.60;99424.80;1766784;80;21537;-64
2022/07/01 07:10:33;;;;;;;10.45;5.05;;;;;;;34.38;46.00;99418.28;1771604;80;20990;-63
2022/07/01 07:13:00;;;;;;;9.18;4.70;;;;;;;34.34;45.62;99419.82;1769525;80;21073;-64
2022/07/01 07:15:27;;;;;;;8.43;4.87;;;;;;;34.18;45.73;99415.09;1773543;80;21076;-63
2022/07/01 07:17:57;;;;;;;10.63;4.85;;;;;;;34.30;46.39;99414.02;1763096;80;21212;-63
2022/07/01 07:20:24;;;;;;;8.43;4.80;;;;;;;34.80;46.88;99415.45;1768969;80;21501;-64
2022/07/01 07:22:51;;;;;;;8.38;4.55;;;;;;;35.17;46.21;99431.44;1768629;80;21100;-63
2022/07/01 07:25:18;;;;;;;15.15;5.12;;;;;;;35.26;46.12;99416.41;1776956;80;21083;-63
2022/07/01 07:27:46;;;;;;;9.33;5.20;;;;;;;35.36;46.15;99419.33;1773641;80;21285;-63
2022/07/01 07:30:17;;;;;;;11.18;4.97;;;;;;;35.31;45.74;99419.23;1791394;78;21086;-63
2022/07/01 07:32:44;;;;;;;10.05;5.37;;;;;;;35.30;45.67;99427.09;1793303;78;21036;-63
2022/07/01 07:35:12;;;;;;;14.85;5.03;;;;;;;35.18;45.68;99431.75;1788535;78;20914;-63
2022/07/01 07:37:40;;;;;;;14.73;5.05;;;;;;;35.04;45.62;99431.16;1787824;78;20969;-63
2022/07/01 07:40:17;;;;;;;7.83;5.05;;;;;;;34.86;45.49;99433.48;1786082;78;20995;-62
2022/07/01 07:42:39;;;;;;;8.50;5.17;;;;;;;34.60;45.50;99431.28;1789437;78;21924;-63
2022/07/01 07:45:11;;;;;;;10.72;5.15;;;;;;;34.31;45.62;99430.59;1765557;79;20942;-63
2022/07/01 07:47:48;;;;;;;8.93;5.28;;;;;;;33.95;45.57;99419.39;1763190;79;21017;-64
2022/07/01 07:51:00;;;;;;;8.43;5.17;;;;;;;33.76;45.83;99421.87;1761062;80;21102;-62
2022/07/01 07:53:26;;;;;;;12.28;5.37;;;;;;;33.59;45.88;99429.28;1749922;81;20950;-63
2022/07/01 07:55:52;;;;;;;13.45;6.00;;;;;;;33.13;45.23;99417.68;1762394;79;22299;-64
2022/07/01 07:58:19;;;;;;;12.20;5.40;;;;;;;32.70;45.68;99415.33;1760933;80;22242;-64
2022/07/01 08:00:46;;;;;;;10.68;5.42;;;;;;;32.58;45.78;99414.42;1759070;80;20989;-63
2022/07/01 08:03:13;;;;;;;10.03;5.15;;;;;;;32.43;46.15;99416.08;1761960;80;20960;-63
2022/07/01 08:05:41;;;;;;;13.05;5.40;;;;;;;32.42;46.40;99409.56;1762256;81;21625;-63
2022/07/01 08:08:08;;;;;;;15.20;5.30;;;;;;;32.25;46.05;99411.47;1757172;79;21060;-63
2022/07/01 08:10:35;;;;;;;10.43;5.12;;;;;;;31.93;46.34;99411.20;1759225;79;20962;-63
2022/07/01 08:13:04;;;;;;;15.23;6.00;;;;;;;31.87;46.71;99411.03;1759343;81;21023;-63
2022/07/01 08:15:32;;;;;;;13.62;5.50;;;;;;;31.99;47.20;99407.66;1765651;80;20996;-63
2022/07/01 08:17:59;;;;;;;15.93;5.80;;;;;;;32.00;46.82;99413.34;1761067;81;22185;-63
2022/07/01 08:20:26;;;;;;;14.05;5.45;;;;;;;32.05;47.11;99412.17;1760075;80;21059;-64
2022/07/01 08:22:54;;;;;;;19.30;5.42;;;;;;;32.16;46.74;99410.11;1765944;79;20980;-64
2022/07/01 08:27:07;;;;;;;13.80;5.90;;;;;;;31.91;46.95;99411.45;1795118;77;27908;-63
2022/07/01 08:29:34;;;;;;;14.07;5.65;;;;;;;31.94;46.90;99414.23;1815136;78;22327;-64
2022/07/01 08:32:02;;;;;;;10.03;5.22;;;;;;;32.06;47.23;99412.47;1796362;78;21140;-63
2022/07/01 08:34:30;;;;;;;11.43;5.83;;;;;;;32.33;47.51;99415.25;1813968;78;20973;-64
2022/07/01 08:36:57;;;;;;;17.48;5.70;;;;;;;32.39;46.91;99407.31;1815125;78;20981;-64
2022/07/01 08:39:24;;;;;;;19.35;5.75;;;;;;;32.24;46.99;99408.48;1818955;78;21562;-63
2022/07/01 08:41:52;;;;;;;13.72;5.97;;;;;;;32.18;47.01;99405.32;1819770;78;20961;-63
2022/07/01 08:44:18;;;;;;;11.20;5.22;;;;;;;32.24;47.00;99405.78;1815201;78;21526;-64
2022/07/01 08:46:46;;;;;;;15.15;5.17;;;;;;;32.32;46.81;99401.45;1817263;78;21008;-64
2022/07/01 08:49:14;;;;;;;10.70;4.42;;;;;;;32.19;46.48;99408.31;1819528;78;21018;-63
2022/07/01 08:51:41;;;;;;;12.13;5.00;;;;;;;31.97;46.57;99404.34;1815950;78;21117;-63
2022/07/01 08:54:10;;;;;;;8.33;4.60;;;;;;;31.85;46.65;99405.02;1816170;78;22208;-64
2022/07/01 08:56:43;;;;;;;10.15;4.70;;;;;;;31.76;46.10;99403.63;1815828;78;21077;-64
2022/07/01 08:59:12;;;;;;;7.65;4.50;;;;;;;31.93;46.27;99405.81;1815159;78;21065;-63
2022/07/01 09:01:41;;;;;;;8.85;4.33;;;;;;;32.04;46.05;99399.70;1816143;77;21071;-63
2022/07/01 09:04:20;;;;;;;8.98;4.97;;;;;;;32.03;45.76;99400.75;1820050;77;21021;-63
2022/07/01 09:06:48;;;;;;;6.60;3.72;;;;;;;32.09;45.83;99399.87;1794298;78;21578;-63
2022/07/01 09:09:39;;;;;;;7.25;4.10;;;;;;;32.22;45.55;99401.64;1817959;78;21061;-63
2022/07/01 09:12:09;;;;;;;7.97;3.80;;;;;;;32.13;45.27;99401.09;1785411;78;21017;-61
2022/07/01 09:14:36;;;;;;;6.33;3.70;;;;;;;32.03;45.24;99408.86;1797225;78;21017;-63
2022/07/01 09:17:06;;;;;;;8.73;4.12;;;;;;;32.07;45.30;99401.98;1766390;79;20998;-63
2022/07/01 09:19:39;;;;;;;14.15;3.60;;;;;;;31.94;45.36;99406.13;1762350;79;21091;-63
2022/07/01 09:22:06;;;;;;;9.10;3.33;;;;;;;32.03;45.20;99398.05;1752371;79;21262;-62
2022/07/01 09:24:41;;;;;;;6.72;3.35;;;;;;;31.94;44.37;99402.08;1775876;79;21097;-64
2022/07/01 09:27:16;;;;;;;9.05;2.98;;;;;;;31.82;43.96;99397.36;1728090;81;21570;-64
2022/07/01 09:29:52;;;;;;;8.10;2.90;;;;;;;31.72;43.50;99393.48;1757050;79;20998;-64
2022/07/01 09:32:21;;;;;;;5.75;2.20;;;;;;;31.60;42.88;99389.31;1719957;81;21641;-64
2022/07/01 09:34:51;;;;;;;5.53;2.10;;;;;;;31.70;42.93;99391.52;1764111;80;21312;-64
2022/07/01 09:37:22;;;;;;;7.95;2.52;;;;;;;31.91;42.68;99384.95;1741707;81;21599;-64
2022/07/01 09:39:57;;;;;;;7.12;2.92;;;;;;;31.94;41.74;99380.48;1752785;79;21072;-63
2022/07/01 09:42:27;;;;;;;9.30;2.80;;;;;;;31.81;42.18;99379.48;1766347;79;21556;-63
2022/07/01 09:45:13;;;;;;;6.22;2.60;;;;;;;31.83;41.67;99377.41;1762997;79;21045;-64
2022/07/01 09:47:39;;;;;;;8.38;2.80;;;;;;;31.75;41.01;99381.72;1788135;77;21259;-61
2022/07/01 09:50:08;;;;;;;5.05;2.67;;;;;;;31.60;41.05;99377.98;1788248;78;21587;-63
2022/07/01 09:52:36;;;;;;;7.42;2.92;;;;;;;31.47;40.71;99385.34;1791971;77;22203;-63
2022/07/01 09:55:23;;;;;;;7.70;2.95;;;;;;;31.36;40.62;99379.57;1787899;78;21092;-63
2022/07/01 09:57:50;;;;;;;8.58;2.80;;;;;;;31.34;40.83;99381.65;1746298;80;21001;-63
2022/07/01 10:00:18;;;;;;;8.45;3.30;;;;;;;31.46;40.78;99373.72;1746900;80;21556;-63
2022/07/01 10:02:48;;;;;;;7.22;3.05;;;;;;;31.55;40.91;99387.25;1748154;80;21585;-63
2022/07/01 10:05:19;;;;;;;7.17;3.25;;;;;;;31.64;40.68;99384.59;1751429;81;21015;-63
2022/07/01 10:08:00;;;;;;;15.18;3.40;;;;;;;31.73;40.91;99381.10;1742199;81;21046;-62
2022/07/01 10:10:52;;;;;;;7.95;3.12;;;;;;;31.89;40.99;99378.40;1747767;81;21066;-63
2022/07/01 10:13:25;;;;;;;6.10;3.30;;;;;;;31.98;40.64;99385.73;1623488;85;21199;-64
2022/07/01 10:15:56;;;;;;;6.05;3.20;;;;;;;31.94;40.65;99378.60;1634858;86;21650;-63
2022/07/01 10:18:27;;;;;;;9.65;3.52;;;;;;;32.10;41.10;99371.84;1616087;86;21134;-65
2022/07/01 10:20:57;;;;;;;8.93;4.28;;;;;;;32.33;41.09;99377.42;1633423;85;21145;-64
2022/07/01 10:23:37;;;;;;;9.23;3.70;;;;;;;32.51;40.76;99383.93;1637466;85;21094;-64
2022/07/01 10:28:58;;;;;;;11.50;3.50;;;;;;;32.54;40.94;99384.83;1611675;87;21886;-62
2022/07/01 10:31:38;;;;;;;11.40;4.08;;;;;;;32.61;40.71;99386.95;1586137;88;21235;-62
2022/07/01 10:34:06;;;;;;;7.55;3.55;;;;;;;32.30;40.14;99394.08;1601907;87;21218;-66
2022/07/01 10:36:35;;;;;;;10.88;3.98;;;;;;;31.99;40.00;99392.80;1583597;88;21273;-63
2022/07/01 10:39:07;;;;;;;7.95;4.00;;;;;;;31.71;40.36;99392.66;1585323;88;21775;-64
2022/07/01 10:41:40;;;;;;;12.25;4.92;;;;;;;31.56;40.62;99386.72;1587566;88;21158;-64
2022/07/01 10:44:12;;;;;;;12.18;4.85;;;;;;;31.54;40.75;99400.98;1627334;86;21272;-65
2022/07/01 10:46:49;;;;;;;10.70;5.75;;;;;;;31.40;41.17;99401.57;1626995;86;21140;-65
2022/07/01 10:49:40;;;;;;;8.48;5.53;;;;;;;31.72;41.66;99394.30;1641465;84;21776;-65
2022/07/01 10:52:15;;;;;;;15.50;6.50;;;;;;;31.94;42.05;99381.30;1723495;81;21594;-64
2022/07/01 10:54:47;;;;;;;15.03;7.75;;;;;;;31.96;41.98;99386.47;1720840;81;21102;-63
2022/07/01 10:57:34;;;;;;;13.60;8.00;;;;;;;31.85;42.60;99383.42;1723885;81;21109;-64
2022/07/01 11:00:07;;;;;;;13.28;7.47;;;;;;;31.63;43.32;99372.68;1718776;82;21560;-63
2022/07/01 11:02:37;;;;;;;13.43;7.65;;;;;;;31.56;43.75;99368.66;1719323;81;20944;-62
2022/07/01 11:05:14;;;;;;;17.20;7.45;;;;;;;31.44;44.21;99373.92;1720971;81;23200;-62
2022/07/01 11:07:46;;;;;;;11.48;7.35;;;;;;;31.33;44.69;99379.97;1722048;81;21049;-62
2022/07/01 11:10:18;;;;;;;13.05;7.75;;;;;;;31.00;45.36;99388.22;1726054;81;21066;-62
2022/07/01 11:12:49;;;;;;;11.30;6.92;;;;;;;30.58;45.73;99389.56;1721294;81;21636;-62
2022/07/01 11:15:17;;;;;;;11.70;6.90;;;;;;;30.32;46.68;99396.64;1706016;82;20970;-63
2022/07/01 11:17:47;;;;;;;12.82;6.90;;;;;;;29.94;46.81;99406.67;1719827;81;21943;-63
2022/07/01 11:20:16;;;;;;;16.62;7.70;;;;;;;29.58;47.45;99409.17;1717141;81;21653;-62
2022/07/01 11:22:44;;;;;;;14.70;7.42;;;;;;;29.27;48.01;99406.16;1716555;81;20967;-62
2022/07/01 11:25:14;;;;;;;11.63;7.83;;;;;;;29.05;48.83;99403.61;1716907;83;22477;-62
2022/07/01 11:27:48;;;;;;;11.03;8.55;;;;;;;28.85;49.08;99395.91;1712176;82;21138;-61
2022/07/01 11:30:17;;;;;;;16.23;7.70;;;;;;;28.71;49.67;99405.27;1722461;82;21200;-63
2022/07/01 11:32:53;;;;;;;11.80;7.42;;;;;;;28.64;50.30;99399.02;1717698;81;21829;-62
2022/07/01 11:41:08;;;;;;;15.23;7.72;;;;;;;29.61;52.48;99381.86;1721096;81;21034;-62
2022/07/01 11:43:39;;;;;;;13.45;7.15;;;;;;;30.04;52.86;99378.81;1722457;81;21067;-64
2022/07/01 11:46:08;;;;;;;9.30;7.33;;;;;;;30.41;52.70;99375.70;1719311;81;21012;-63
2022/07/01 11:48:44;;;;;;;16.23;7.37;;;;;;;30.31;52.52;99378.84;1718027;81;21047;-63
2022/07/01 11:51:16;;;;;;;;;;;;;;;30.40;52.88;99379.45;1721701;81;21236;-63
2022/07/01 11:53:54;;;;;;;14.10;6.28;;;;;;;30.65;52.65;99374.22;1718567;81;20579;-63
2022/07/01 11:56:38;;;;;;;8.68;7.30;;;;;;;30.69;52.06;99357.39;1707883;81;22074;-63